createdAt,value
2023-03-30T00:00:49.356Z,51.62
2023-03-30T00:01:46.018Z,52.09
2023-03-30T00:02:44.719Z,52.52
2023-03-30T00:03:45.711Z,51.36
2023-03-30T00:04:43.081Z,51.45
2023-03-30T00:05:40.009Z,53.64
2023-03-30T00:06:39.269Z,52.62
2023-03-30T00:07:38.446Z,52.12
2023-03-30T00:08:35.419Z,52.83
2023-03-30T00:09:33.204Z,53.94
2023-03-30T00:10:29.806Z,52.44
2023-03-30T00:11:27.241Z,54.12
2023-03-30T00:12:24.442Z,52.87
2023-03-30T00:13:21.139Z,54.17
2023-03-30T00:14:19.720Z,52.69
2023-03-30T00:15:19.428Z,52.14
2023-03-30T00:16:17.523Z,53.43
2023-03-30T00:17:14.170Z,53.34
2023-03-30T00:18:10.917Z,52.93
2023-03-30T00:19:07.754Z,52.83
2023-03-30T00:20:08.834Z,54.59
2023-03-30T00:21:07.646Z,52.67
2023-03-30T00:22:09.388Z,52.69
2023-03-30T00:23:06.243Z,52.71
2023-03-30T00:24:02.828Z,53.14
2023-03-30T00:24:59.673Z,52.38
2023-03-30T00:25:56.711Z,52.63
2023-03-30T00:26:53.409Z,52.78
2023-03-30T00:27:50.023Z,52.43
2023-03-30T00:28:46.756Z,52.67
2023-03-30T00:29:43.378Z,52.05
2023-03-30T00:30:40.046Z,52.75
2023-03-30T00:31:36.680Z,52.87
2023-03-30T00:32:34.573Z,53.19
2023-03-30T00:33:44.625Z,52.52
2023-03-30T00:34:42.774Z,52.36
2023-03-30T00:35:39.763Z,53.05
2023-03-30T00:36:37.288Z,52.92
2023-03-30T00:37:37.395Z,52.50
2023-03-30T00:38:34.202Z,53.74
2023-03-30T00:39:30.795Z,53.48
2023-03-30T00:40:28.600Z,54.62
2023-03-30T00:41:25.371Z,53.43
2023-03-30T00:42:22.129Z,52.34
2023-03-30T00:43:19.514Z,52.19
2023-03-30T00:44:53.400Z,53.30
2023-03-30T00:45:50.956Z,53.12
2023-03-30T00:46:47.554Z,52.91
2023-03-30T00:48:11.968Z,53.53
2023-03-30T00:49:10.796Z,53.36
2023-03-30T00:50:09.572Z,53.24
2023-03-30T00:51:10.836Z,52.99
2023-03-30T00:52:10.028Z,53.28
2023-03-30T00:53:28.677Z,53.02
2023-03-30T00:54:25.414Z,53.34
2023-03-30T00:55:24.683Z,53.21
2023-03-30T00:56:27.162Z,53.29
2023-03-30T00:57:24.853Z,53.63
2023-03-30T00:58:24.103Z,53.29
2023-03-30T00:59:20.724Z,53.69
2023-03-30T01:00:18.780Z,54.23
2023-03-30T01:01:25.851Z,53.98
2023-03-30T01:02:23.445Z,53.99
2023-03-30T01:03:43.789Z,53.57
2023-03-30T01:04:41.234Z,53.33
2023-03-30T01:05:41.455Z,54.45
2023-03-30T01:06:40.958Z,54.11
2023-03-30T01:07:39.759Z,53.37
2023-03-30T01:08:37.438Z,54.35
2023-03-30T01:09:34.037Z,55.29
2023-03-30T01:10:30.753Z,54.40
2023-03-30T01:11:27.859Z,54.96
2023-03-30T01:12:24.525Z,55.25
2023-03-30T01:13:21.374Z,55.21
2023-03-30T01:14:18.700Z,55.48
2023-03-30T01:15:16.433Z,57.03
2023-03-30T01:16:30.330Z,56.86
2023-03-30T01:17:37.175Z,53.80
2023-03-30T01:18:50.394Z,54.29
2023-03-30T01:20:16.078Z,56.90
2023-03-30T01:21:24.079Z,56.62
2023-03-30T01:22:58.931Z,54.49
2023-03-30T01:24:20.820Z,54.50
2023-03-30T01:25:56.467Z,54.80
2023-03-30T01:27:01.136Z,55.15
2023-03-30T01:28:06.793Z,55.83
2023-03-30T01:29:29.463Z,54.30
2023-03-30T01:31:01.287Z,53.61
2023-03-30T01:32:03.715Z,53.45
2023-03-30T01:33:22.843Z,53.55
2023-03-30T01:34:48.110Z,53.46
2023-03-30T01:36:00.184Z,53.46
2023-03-30T01:37:06.339Z,54.09
2023-03-30T01:38:24.908Z,54.38
2023-03-30T01:39:47.670Z,54.59
2023-03-30T01:41:30.021Z,54.66
2023-03-30T01:43:01.717Z,54.17
2023-03-30T01:44:12.212Z,55.15
2023-03-30T01:45:45.903Z,55.10
2023-03-30T01:46:51.099Z,55.49
2023-03-30T01:47:50.583Z,56.16
2023-03-30T01:48:59.552Z,55.56
2023-03-30T01:50:03.008Z,55.38
2023-03-30T01:51:05.323Z,55.69
2023-03-30T01:52:14.334Z,56.44
2023-03-30T01:53:25.860Z,57.99
2023-03-30T01:54:29.854Z,58.29
2023-03-30T01:55:34.885Z,57.97
2023-03-30T01:56:43.896Z,58.35
2023-03-30T01:57:46.705Z,59.03
2023-03-30T01:58:55.162Z,59.58
2023-03-30T02:00:14.949Z,59.72
2023-03-30T02:01:17.512Z,59.38
2023-03-30T02:02:15.711Z,59.89
2023-03-30T02:03:21.678Z,60.32
2023-03-30T02:04:23.454Z,60.72
2023-03-30T02:05:23.089Z,61.26
2023-03-30T02:06:27.012Z,61.21
2023-03-30T02:07:28.406Z,60.63
2023-03-30T02:08:30.857Z,61.42
2023-03-30T02:09:27.876Z,62.31
2023-03-30T02:10:29.648Z,62.41
2023-03-30T02:11:29.280Z,62.32
2023-03-30T02:12:30.140Z,63.17
2023-03-30T02:13:30.540Z,62.92
2023-03-30T02:14:31.225Z,62.82
2023-03-30T02:15:34.822Z,62.69
2023-03-30T02:16:38.064Z,62.55
2023-03-30T02:17:36.028Z,62.29
2023-03-30T02:18:33.053Z,62.21
2023-03-30T02:19:30.627Z,62.64
2023-03-30T02:20:28.994Z,63.58
2023-03-30T02:21:27.215Z,63.02
2023-03-30T02:22:25.083Z,63.92
2023-03-30T02:23:24.780Z,64.68
2023-03-30T02:24:27.089Z,63.72
2023-03-30T02:25:24.585Z,63.26
2023-03-30T02:26:22.982Z,63.82
2023-03-30T02:27:21.558Z,63.91
2023-03-30T02:28:18.566Z,64.29
2023-03-30T02:29:16.013Z,64.81
2023-03-30T02:30:13.063Z,64.57
2023-03-30T02:31:15.684Z,65.52
2023-03-30T02:32:24.443Z,65.59
2023-03-30T02:33:33.835Z,66.28
2023-03-30T02:35:01.518Z,67.22
2023-03-30T02:36:15.968Z,67.07
2023-03-30T02:37:21.485Z,67.38
2023-03-30T02:38:44.061Z,68.13
2023-03-30T02:40:12.783Z,67.94
2023-03-30T02:41:37.802Z,68.25
2023-03-30T02:43:14.640Z,67.36
2023-03-30T02:44:23.078Z,66.32
2023-03-30T02:45:38.194Z,67.58
2023-03-30T02:46:43.778Z,66.71
2023-03-30T02:48:12.481Z,67.24
2023-03-30T02:49:27.290Z,67.63
2023-03-30T02:50:38.856Z,67.00
2023-03-30T02:51:50.204Z,67.43
2023-03-30T02:53:04.983Z,68.04
2023-03-30T02:54:09.543Z,67.62
2023-03-30T02:55:18.128Z,66.40
2023-03-30T02:56:42.619Z,66.70
2023-03-30T02:57:48.799Z,66.65
2023-03-30T02:58:54.132Z,66.69
2023-03-30T03:00:09.001Z,67.38
2023-03-30T03:01:24.116Z,65.67
2023-03-30T03:02:30.509Z,65.68
2023-03-30T03:03:32.927Z,65.26
2023-03-30T03:04:29.866Z,64.86
2023-03-30T03:05:27.674Z,64.49
2023-03-30T03:06:25.928Z,64.32
2023-03-30T03:07:24.771Z,64.93
2023-03-30T03:08:24.625Z,64.62
2023-03-30T03:09:25.064Z,64.31
2023-03-30T03:10:21.942Z,64.84
2023-03-30T03:11:18.576Z,65.72
2023-03-30T03:12:15.438Z,65.10
2023-03-30T03:13:12.942Z,65.13
2023-03-30T03:14:09.636Z,64.98
2023-03-30T03:15:06.722Z,64.59
2023-03-30T03:16:11.028Z,67.16
2023-03-30T03:17:07.669Z,65.80
2023-03-30T03:18:04.486Z,67.48
2023-03-30T03:19:01.552Z,66.65
2023-03-30T03:19:58.260Z,66.56
2023-03-30T03:20:54.810Z,65.33
2023-03-30T03:21:51.824Z,65.16
2023-03-30T03:22:48.420Z,65.28
2023-03-30T03:23:48.342Z,67.74
2023-03-30T03:24:45.079Z,66.58
2023-03-30T03:25:41.679Z,67.24
2023-03-30T03:26:38.772Z,66.07
2023-03-30T03:27:35.647Z,66.59
2023-03-30T03:28:32.792Z,66.40
2023-03-30T03:29:29.464Z,66.07
2023-03-30T03:30:26.207Z,66.13
2023-03-30T03:31:24.447Z,65.88
2023-03-30T03:32:21.111Z,65.53
2023-03-30T03:33:20.284Z,65.80
2023-03-30T03:34:18.171Z,65.70
2023-03-30T03:35:14.926Z,65.58
2023-03-30T03:36:12.344Z,66.26
2023-03-30T03:37:09.001Z,66.23
2023-03-30T03:38:07.838Z,66.19
2023-03-30T03:39:04.560Z,66.42
2023-03-30T03:40:01.257Z,65.99
2023-03-30T03:40:59.365Z,66.43
2023-03-30T03:41:56.101Z,67.79
2023-03-30T03:42:52.719Z,67.54
2023-03-30T03:43:49.554Z,67.41
2023-03-30T03:44:46.138Z,66.55
2023-03-30T03:45:42.779Z,68.01
2023-03-30T03:46:39.434Z,67.14
2023-03-30T03:47:36.291Z,66.21
2023-03-30T03:48:33.022Z,66.02
2023-03-30T03:49:29.590Z,66.88
2023-03-30T03:50:26.301Z,66.43
2023-03-30T03:51:23.051Z,66.84
2023-03-30T03:52:19.664Z,67.65
2023-03-30T03:53:16.308Z,69.40
2023-03-30T03:54:13.049Z,67.52
2023-03-30T03:55:09.817Z,69.15
2023-03-30T03:56:07.523Z,68.81
2023-03-30T03:57:05.751Z,69.41
2023-03-30T03:58:07.471Z,69.33
2023-03-30T03:59:04.791Z,68.73
2023-03-30T04:00:01.632Z,68.02
2023-03-30T04:01:00.091Z,67.45
2023-03-30T04:01:56.874Z,68.48
2023-03-30T04:02:53.568Z,68.34
2023-03-30T04:03:50.283Z,67.95
2023-03-30T04:04:46.956Z,68.29
2023-03-30T04:05:44.003Z,69.00
2023-03-30T04:06:40.651Z,70.59
2023-03-30T04:07:37.688Z,69.75
2023-03-30T04:08:34.884Z,70.75
2023-03-30T04:09:31.680Z,69.94
2023-03-30T04:10:28.240Z,69.53
2023-03-30T04:11:24.914Z,69.45
2023-03-30T04:12:21.595Z,70.89
2023-03-30T04:13:18.281Z,70.60
2023-03-30T04:14:15.514Z,70.28
2023-03-30T04:15:12.343Z,69.98
2023-03-30T04:16:09.064Z,70.77
2023-03-30T04:17:06.510Z,71.31
2023-03-30T04:18:05.433Z,70.91
2023-03-30T04:19:02.153Z,71.49
2023-03-30T04:19:59.175Z,71.28
2023-03-30T04:20:57.077Z,71.93
2023-03-30T04:21:55.680Z,71.75
2023-03-30T04:22:53.705Z,71.76
2023-03-30T04:23:50.306Z,71.65
2023-03-30T04:24:46.937Z,71.79
2023-03-30T04:25:43.712Z,72.07
2023-03-30T04:26:41.677Z,72.40
2023-03-30T04:27:38.690Z,72.77
2023-03-30T04:28:35.775Z,73.02
2023-03-30T04:29:32.822Z,72.91
2023-03-30T04:30:30.591Z,72.97
2023-03-30T04:31:34.801Z,73.95
2023-03-30T04:32:34.903Z,72.81
2023-03-30T04:33:35.340Z,72.68
2023-03-30T04:34:31.901Z,73.00
2023-03-30T04:35:32.878Z,73.21
2023-03-30T04:36:29.657Z,72.87
2023-03-30T04:37:31.396Z,73.28
2023-03-30T04:38:28.160Z,73.71
2023-03-30T04:39:24.993Z,74.13
2023-03-30T04:40:21.811Z,75.14
2023-03-30T04:41:18.412Z,74.85
2023-03-30T04:42:15.669Z,74.79
2023-03-30T04:43:14.148Z,75.19
2023-03-30T04:44:11.146Z,75.42
2023-03-30T04:45:08.754Z,76.26
2023-03-30T04:46:05.536Z,76.47
2023-03-30T04:47:02.097Z,75.66
2023-03-30T04:47:58.978Z,75.19
2023-03-30T04:48:55.758Z,75.40
2023-03-30T04:49:52.369Z,76.36
2023-03-30T04:50:50.957Z,76.43
2023-03-30T04:51:47.642Z,76.51
2023-03-30T04:52:44.350Z,77.20
2023-03-30T04:53:41.005Z,78.83
2023-03-30T04:54:37.619Z,79.33
2023-03-30T04:55:34.184Z,80.53
2023-03-30T04:56:30.939Z,80.68
2023-03-30T04:57:27.596Z,81.43
2023-03-30T04:58:24.265Z,82.22
2023-03-30T04:59:20.810Z,82.53
2023-03-30T05:00:18.096Z,82.63
2023-03-30T05:01:14.772Z,82.53
2023-03-30T05:02:13.041Z,82.76
2023-03-30T05:03:09.818Z,81.90
2023-03-30T05:04:07.385Z,81.98
2023-03-30T05:05:04.402Z,81.91
2023-03-30T05:06:01.014Z,82.16
2023-03-30T05:06:57.846Z,81.24
2023-03-30T05:07:54.546Z,81.63
2023-03-30T05:08:51.626Z,81.88
2023-03-30T05:09:48.461Z,82.14
2023-03-30T05:10:45.037Z,82.27
2023-03-30T05:11:41.741Z,81.52
2023-03-30T05:12:38.332Z,81.45
2023-03-30T05:13:35.067Z,81.67
2023-03-30T05:14:31.728Z,82.30
2023-03-30T05:15:28.454Z,82.54
2023-03-30T05:16:25.072Z,82.30
2023-03-30T05:17:21.693Z,82.30
2023-03-30T05:18:18.336Z,82.73
2023-03-30T05:19:15.266Z,82.33
2023-03-30T05:20:11.868Z,82.27
2023-03-30T05:21:08.603Z,81.86
2023-03-30T05:22:05.292Z,82.36
2023-03-30T05:23:01.888Z,82.21
2023-03-30T05:23:58.496Z,82.31
2023-03-30T05:24:55.067Z,82.26
2023-03-30T05:25:51.999Z,82.58
2023-03-30T05:26:48.636Z,82.95
2023-03-30T05:27:45.511Z,82.87
2023-03-30T05:28:43.205Z,83.20
2023-03-30T05:29:39.931Z,83.19
2023-03-30T05:30:36.562Z,83.16
2023-03-30T05:31:33.302Z,82.63
2023-03-30T05:32:30.086Z,82.08
2023-03-30T05:33:27.199Z,81.98
2023-03-30T05:34:23.835Z,81.58
2023-03-30T05:35:20.568Z,81.46
2023-03-30T05:36:17.704Z,81.35
2023-03-30T05:37:15.210Z,81.51
2023-03-30T05:38:11.805Z,81.13
2023-03-30T05:39:09.124Z,81.71
2023-03-30T05:40:09.519Z,81.66
2023-03-30T05:41:06.800Z,81.00
2023-03-30T05:42:03.994Z,80.67
2023-03-30T05:43:01.094Z,80.81
2023-03-30T05:43:57.777Z,79.06
2023-03-30T05:44:54.420Z,78.64
2023-03-30T05:45:51.192Z,78.04
2023-03-30T05:46:47.900Z,78.46
2023-03-30T05:47:44.515Z,78.81
2023-03-30T05:48:41.446Z,78.06
2023-03-30T05:49:38.197Z,77.20
2023-03-30T05:50:34.975Z,76.63
2023-03-30T05:51:31.708Z,76.95
2023-03-30T05:52:28.594Z,77.09
2023-03-30T05:53:25.259Z,76.90
2023-03-30T05:54:21.973Z,76.28
2023-03-30T05:55:18.879Z,77.21
2023-03-30T05:56:15.769Z,77.80
2023-03-30T05:57:12.393Z,77.99
2023-03-30T05:58:09.299Z,77.95
2023-03-30T05:59:05.860Z,77.24
2023-03-30T06:00:04.068Z,77.36
2023-03-30T06:01:00.808Z,77.24
2023-03-30T06:01:57.448Z,76.04
2023-03-30T06:02:54.471Z,75.02
2023-03-30T06:03:51.459Z,74.77
2023-03-30T06:04:48.625Z,75.67
2023-03-30T06:05:46.171Z,75.54
2023-03-30T06:06:42.829Z,75.94
2023-03-30T06:07:39.590Z,76.46
2023-03-30T06:08:36.401Z,76.87
2023-03-30T06:09:33.025Z,75.56
2023-03-30T06:10:29.601Z,75.07
2023-03-30T06:11:26.351Z,74.82
2023-03-30T06:12:22.957Z,75.07
2023-03-30T06:13:19.753Z,75.34
2023-03-30T06:14:16.469Z,75.42
2023-03-30T06:15:13.181Z,74.54
2023-03-30T06:16:09.911Z,74.54
2023-03-30T06:17:07.709Z,74.20
2023-03-30T06:18:04.598Z,74.61
2023-03-30T06:19:01.476Z,74.69
2023-03-30T06:19:58.106Z,74.07
2023-03-30T06:20:54.844Z,74.36
2023-03-30T06:21:51.451Z,74.72
2023-03-30T06:22:48.690Z,74.55
2023-03-30T06:23:45.276Z,73.88
2023-03-30T06:24:41.871Z,74.25
2023-03-30T06:25:38.701Z,74.61
2023-03-30T06:26:35.378Z,75.53
2023-03-30T06:27:33.013Z,75.24
2023-03-30T06:28:29.753Z,74.53
2023-03-30T06:29:27.215Z,74.67
2023-03-30T06:30:24.079Z,74.69
2023-03-30T06:31:20.879Z,76.07
2023-03-30T06:32:17.780Z,75.51
2023-03-30T06:33:16.427Z,75.16
2023-03-30T06:34:13.144Z,74.17
2023-03-30T06:35:10.085Z,75.02
2023-03-30T06:36:11.084Z,75.65
2023-03-30T06:37:08.910Z,75.02
2023-03-30T06:38:05.538Z,74.93
2023-03-30T06:39:06.525Z,74.89
2023-03-30T06:40:13.294Z,74.83
2023-03-30T06:41:12.004Z,74.95
2023-03-30T06:42:08.687Z,73.34
2023-03-30T06:43:06.754Z,73.73
2023-03-30T06:44:03.539Z,73.48
2023-03-30T06:45:00.192Z,73.93
2023-03-30T06:45:57.398Z,73.67
2023-03-30T06:46:54.024Z,73.85
2023-03-30T06:47:50.823Z,74.14
2023-03-30T06:48:47.873Z,74.16
2023-03-30T06:49:44.525Z,74.20
2023-03-30T06:50:41.138Z,74.11
2023-03-30T06:51:37.849Z,73.51
2023-03-30T06:52:35.637Z,73.34
2023-03-30T06:53:32.538Z,72.53
2023-03-30T06:54:29.054Z,73.07
2023-03-30T06:55:25.776Z,73.52
2023-03-30T06:56:22.659Z,72.86
2023-03-30T06:57:19.468Z,73.02
2023-03-30T06:58:16.429Z,73.77
2023-03-30T06:59:13.456Z,72.79
2023-03-30T07:00:13.552Z,72.79
2023-03-30T07:01:16.045Z,72.26
2023-03-30T07:02:14.192Z,71.69
2023-03-30T07:03:10.882Z,72.01
2023-03-30T07:04:08.420Z,71.21
2023-03-30T07:05:06.972Z,70.48
2023-03-30T07:06:04.286Z,71.05
2023-03-30T07:07:00.968Z,70.63
2023-03-30T07:07:57.671Z,70.40
2023-03-30T07:08:54.273Z,70.50
2023-03-30T07:09:51.059Z,69.75
2023-03-30T07:10:51.226Z,69.70
2023-03-30T07:11:47.962Z,69.39
2023-03-30T07:12:44.566Z,69.12
2023-03-30T07:13:41.219Z,68.79
2023-03-30T07:14:37.898Z,68.65
2023-03-30T07:15:34.617Z,69.03
2023-03-30T07:16:31.726Z,68.63
2023-03-30T07:17:28.389Z,68.40
2023-03-30T07:18:25.492Z,66.54
2023-03-30T07:19:22.126Z,66.03
2023-03-30T07:20:20.440Z,67.13
2023-03-30T07:21:17.055Z,68.32
2023-03-30T07:22:13.633Z,68.43
2023-03-30T07:23:11.677Z,68.84
2023-03-30T07:24:08.491Z,69.23
2023-03-30T07:25:05.700Z,68.98
2023-03-30T07:26:03.034Z,67.89
2023-03-30T07:26:59.981Z,67.73
2023-03-30T07:27:56.627Z,67.48
2023-03-30T07:28:53.240Z,66.73
2023-03-30T07:29:50.989Z,65.17
2023-03-30T07:30:47.762Z,65.39
2023-03-30T07:31:44.478Z,65.47
2023-03-30T07:32:41.451Z,65.53
2023-03-30T07:33:38.245Z,65.28
2023-03-30T07:34:35.021Z,65.67
2023-03-30T07:35:32.274Z,65.21
2023-03-30T07:36:28.976Z,65.20
2023-03-30T07:37:25.617Z,65.54
2023-03-30T07:38:22.228Z,65.66
2023-03-30T07:39:18.946Z,65.73
2023-03-30T07:40:15.686Z,67.23
2023-03-30T07:41:15.670Z,66.95
2023-03-30T07:42:12.306Z,67.12
2023-03-30T07:43:08.966Z,66.34
2023-03-30T07:44:05.891Z,65.55
2023-03-30T07:45:03.946Z,65.18
2023-03-30T07:46:00.599Z,65.38
2023-03-30T07:47:01.701Z,64.35
2023-03-30T07:47:58.444Z,66.63
2023-03-30T07:48:55.064Z,66.42
2023-03-30T07:49:52.076Z,65.91
2023-03-30T07:50:48.778Z,65.51
2023-03-30T07:51:45.429Z,65.77
2023-03-30T07:52:42.082Z,62.73
2023-03-30T07:53:39.547Z,63.32
2023-03-30T07:54:36.321Z,62.04
2023-03-30T07:55:33.169Z,63.54
2023-03-30T07:56:29.832Z,62.32
2023-03-30T07:57:26.524Z,61.93
2023-03-30T07:58:23.774Z,63.99
2023-03-30T07:59:22.002Z,64.34
2023-03-30T08:00:20.819Z,64.19
2023-03-30T08:01:17.743Z,63.20
2023-03-30T08:02:15.281Z,61.90
2023-03-30T08:03:12.163Z,61.64
2023-03-30T08:04:09.032Z,62.94
2023-03-30T08:05:06.397Z,62.71
2023-03-30T08:06:06.932Z,61.08
2023-03-30T08:07:04.240Z,62.29
2023-03-30T08:08:01.176Z,61.10
2023-03-30T08:08:57.870Z,58.67
2023-03-30T08:09:54.699Z,59.07
2023-03-30T08:10:51.445Z,59.06
2023-03-30T08:11:48.030Z,59.36
2023-03-30T08:12:44.698Z,59.38
2023-03-30T08:13:41.530Z,59.69
2023-03-30T08:14:38.202Z,60.06
2023-03-30T08:15:34.866Z,60.18
2023-03-30T08:16:31.936Z,61.35
2023-03-30T08:17:28.746Z,59.31
2023-03-30T08:18:27.217Z,58.92
2023-03-30T08:19:25.847Z,60.75
2023-03-30T08:20:22.645Z,60.25
2023-03-30T08:21:19.517Z,59.08
2023-03-30T08:22:16.321Z,59.24
2023-03-30T08:23:13.728Z,59.55
2023-03-30T08:24:10.394Z,60.57
2023-03-30T08:25:07.607Z,59.70
2023-03-30T08:26:04.476Z,59.01
2023-03-30T08:27:01.659Z,57.99
2023-03-30T08:27:58.354Z,58.29
2023-03-30T08:28:55.362Z,58.51
2023-03-30T08:29:54.312Z,58.13
2023-03-30T08:30:51.507Z,58.55
2023-03-30T08:31:48.217Z,58.37
2023-03-30T08:32:45.381Z,58.65
2023-03-30T08:33:42.002Z,59.22
2023-03-30T08:34:39.405Z,59.87
2023-03-30T08:35:36.231Z,57.48
2023-03-30T08:36:33.133Z,56.72
2023-03-30T08:37:29.788Z,56.86
2023-03-30T08:38:26.737Z,56.85
2023-03-30T08:39:23.532Z,57.19
2023-03-30T08:40:20.561Z,57.28
2023-03-30T08:41:29.321Z,55.60
2023-03-30T08:42:46.588Z,55.87
2023-03-30T08:43:55.784Z,55.49
2023-03-30T08:44:56.548Z,55.62
2023-03-30T08:45:53.195Z,55.09
2023-03-30T08:46:51.990Z,54.01
2023-03-30T08:47:52.659Z,53.37
2023-03-30T08:48:51.854Z,54.00
2023-03-30T08:50:16.512Z,54.65
2023-03-30T08:51:28.203Z,53.37
2023-03-30T08:52:25.502Z,54.12
2023-03-30T08:53:22.241Z,54.51
2023-03-30T08:54:21.182Z,54.26
2023-03-30T08:55:29.402Z,54.87
2023-03-30T08:56:39.731Z,54.72
2023-03-30T08:57:54.743Z,52.55
2023-03-30T08:58:54.361Z,51.76
2023-03-30T09:00:12.508Z,53.76
2023-03-30T09:01:28.690Z,53.06
2023-03-30T09:02:32.594Z,53.58
2023-03-30T09:03:59.239Z,53.16
2023-03-30T09:05:02.290Z,52.29
2023-03-30T09:06:11.430Z,50.99
2023-03-30T09:07:19.603Z,52.98
2023-03-30T09:08:29.334Z,51.69
2023-03-30T09:09:30.164Z,51.45
2023-03-30T09:10:30.795Z,51.42
2023-03-30T09:11:34.726Z,51.13
2023-03-30T09:12:46.401Z,51.57
2023-03-30T09:13:46.452Z,51.22
2023-03-30T09:14:50.392Z,51.69
2023-03-30T09:15:57.752Z,51.13
2023-03-30T09:17:07.600Z,50.34
2023-03-30T09:18:36.002Z,50.76
2023-03-30T09:19:47.679Z,52.21
2023-03-30T09:20:46.548Z,52.29
2023-03-30T09:21:43.418Z,51.66
2023-03-30T09:22:42.851Z,50.52
2023-03-30T09:23:40.287Z,51.04
2023-03-30T09:24:37.357Z,52.54
2023-03-30T09:25:54.285Z,52.07
2023-03-30T09:27:16.363Z,51.42
2023-03-30T09:28:26.454Z,49.63
2023-03-30T09:29:28.459Z,49.24
2023-03-30T09:30:53.104Z,48.65
2023-03-30T09:32:01.928Z,47.48
2023-03-30T09:33:03.650Z,48.32
2023-03-30T09:34:14.156Z,48.60
2023-03-30T09:35:16.769Z,50.12
2023-03-30T09:36:21.435Z,49.78
2023-03-30T09:37:22.466Z,50.11
2023-03-30T09:38:21.592Z,50.52
2023-03-30T09:39:22.157Z,49.77
2023-03-30T09:40:31.608Z,49.92
2023-03-30T09:41:46.290Z,50.25
2023-03-30T09:43:08.477Z,48.74
2023-03-30T09:44:16.571Z,48.07
2023-03-30T09:45:44.885Z,48.66
2023-03-30T09:46:41.663Z,48.65
2023-03-30T09:47:39.601Z,47.59
2023-03-30T09:48:47.455Z,47.99
2023-03-30T09:49:44.153Z,47.53
2023-03-30T09:50:44.254Z,47.45
2023-03-30T09:51:56.965Z,46.29
2023-03-30T09:53:01.501Z,45.74
2023-03-30T09:54:02.022Z,46.03
2023-03-30T09:55:18.200Z,46.35
2023-03-30T09:56:28.669Z,46.65
2023-03-30T09:57:31.347Z,45.30
2023-03-30T09:58:33.771Z,46.19
2023-03-30T09:59:31.873Z,47.79
2023-03-30T10:00:29.389Z,46.48
2023-03-30T10:01:38.265Z,47.29
2023-03-30T10:02:35.255Z,47.71
2023-03-30T10:03:32.867Z,46.59
2023-03-30T10:04:29.711Z,46.55
2023-03-30T10:05:27.568Z,46.43
2023-03-30T10:06:24.834Z,46.43
2023-03-30T10:07:38.777Z,46.97
2023-03-30T10:08:44.141Z,47.58
2023-03-30T10:09:44.753Z,46.90
2023-03-30T10:10:42.359Z,46.40
2023-03-30T10:11:49.654Z,46.18
2023-03-30T10:12:49.205Z,45.72
2023-03-30T10:13:46.250Z,45.73
2023-03-30T10:14:43.441Z,45.36
2023-03-30T10:15:44.391Z,46.12
2023-03-30T10:16:44.172Z,46.38
2023-03-30T10:17:41.621Z,46.25
2023-03-30T10:18:42.110Z,46.65
2023-03-30T10:19:45.938Z,45.08
2023-03-30T10:20:53.026Z,45.11
2023-03-30T10:21:55.166Z,46.07
2023-03-30T10:22:56.962Z,45.43
2023-03-30T10:24:08.602Z,45.32
2023-03-30T10:25:10.370Z,45.16
2023-03-30T10:26:20.634Z,46.29
2023-03-30T10:27:19.568Z,45.77
2023-03-30T10:28:21.860Z,46.43
2023-03-30T10:29:22.887Z,45.26
2023-03-30T10:30:23.590Z,44.95
2023-03-30T10:31:21.287Z,45.67
2023-03-30T10:32:21.574Z,46.40
2023-03-30T10:33:18.313Z,44.43
2023-03-30T10:34:23.393Z,45.66
2023-03-30T10:35:24.405Z,46.75
2023-03-30T10:36:21.380Z,46.25
2023-03-30T10:37:30.822Z,46.05
2023-03-30T10:38:32.572Z,45.76
2023-03-30T10:39:34.860Z,45.34
2023-03-30T10:40:37.272Z,44.32
2023-03-30T10:41:37.688Z,44.15
2023-03-30T10:42:34.428Z,44.61
2023-03-30T10:43:32.452Z,44.87
2023-03-30T10:44:35.921Z,45.26
2023-03-30T10:45:41.739Z,44.57
2023-03-30T10:46:38.606Z,45.15
2023-03-30T10:47:59.447Z,46.24
2023-03-30T10:49:15.435Z,45.60
2023-03-30T10:50:27.905Z,44.38
2023-03-30T10:51:42.857Z,45.81
2023-03-30T10:53:00.794Z,44.72
2023-03-30T10:54:20.466Z,44.35
2023-03-30T10:55:55.939Z,45.32
2023-03-30T10:56:57.343Z,44.27
2023-03-30T10:58:31.192Z,44.49
2023-03-30T11:00:01.766Z,45.16
2023-03-30T11:01:13.610Z,46.73
2023-03-30T11:02:19.366Z,45.68
2023-03-30T11:03:24.970Z,45.79
2023-03-30T11:04:27.307Z,45.57
2023-03-30T11:05:35.668Z,45.22
2023-03-30T11:06:38.511Z,45.47
2023-03-30T11:08:06.879Z,45.53
2023-03-30T11:09:09.641Z,45.99
2023-03-30T11:10:15.710Z,45.72
2023-03-30T11:11:37.896Z,46.60
2023-03-30T11:12:41.537Z,45.73
2023-03-30T11:13:45.336Z,46.42
2023-03-30T11:14:52.208Z,45.90
2023-03-30T11:16:09.216Z,45.53
2023-03-30T11:17:11.878Z,45.23
2023-03-30T11:18:22.088Z,46.15
2023-03-30T11:19:42.622Z,47.03
2023-03-30T11:21:37.708Z,46.01
2023-03-30T11:22:46.631Z,45.01
2023-03-30T11:23:54.396Z,44.98
2023-03-30T11:24:55.261Z,45.16
2023-03-30T11:26:04.498Z,45.86
2023-03-30T11:27:14.221Z,45.16
2023-03-30T11:28:29.037Z,45.50
2023-03-30T11:29:36.997Z,45.81
2023-03-30T11:30:35.337Z,45.16
2023-03-30T11:31:53.515Z,44.96
2023-03-30T11:33:00.235Z,45.32
2023-03-30T11:34:11.442Z,43.99
2023-03-30T11:35:14.569Z,44.87
2023-03-30T11:36:21.033Z,44.30
2023-03-30T11:37:33.904Z,43.88
2023-03-30T11:38:48.065Z,43.31
2023-03-30T11:40:14.069Z,41.87
2023-03-30T11:41:16.922Z,41.67
2023-03-30T11:42:24.013Z,42.49
2023-03-30T11:43:23.484Z,42.72
2023-03-30T11:44:20.058Z,42.69
2023-03-30T11:45:51.946Z,42.82
2023-03-30T11:46:57.355Z,42.54
2023-03-30T11:48:15.732Z,41.92
2023-03-30T11:49:21.282Z,41.96
2023-03-30T11:50:37.684Z,42.70
2023-03-30T11:52:01.783Z,42.20
2023-03-30T11:53:24.428Z,41.65
2023-03-30T11:54:52.631Z,41.31
2023-03-30T11:56:38.761Z,41.23
2023-03-30T11:57:42.929Z,41.31
2023-03-30T11:58:49.369Z,41.26
2023-03-30T11:59:51.952Z,41.09
2023-03-30T12:00:57.544Z,41.62
2023-03-30T12:02:06.632Z,41.26
2023-03-30T12:03:15.153Z,41.08
2023-03-30T12:04:15.970Z,41.30
2023-03-30T12:05:34.119Z,40.57
2023-03-30T12:06:33.082Z,40.22
2023-03-30T12:07:43.754Z,42.32
2023-03-30T12:08:52.831Z,41.17
2023-03-30T12:09:59.562Z,40.21
2023-03-30T12:11:12.732Z,39.83
2023-03-30T12:12:18.505Z,40.73
2023-03-30T12:13:18.600Z,41.68
2023-03-30T12:14:45.972Z,41.13
2023-03-30T12:16:08.246Z,43.11
2023-03-30T12:17:25.614Z,42.52
2023-03-30T12:18:34.286Z,41.08
2023-03-30T12:19:53.468Z,40.71
2023-03-30T12:20:55.594Z,41.72
2023-03-30T12:21:59.143Z,41.50
2023-03-30T12:22:57.761Z,42.55
2023-03-30T12:24:13.413Z,42.12
2023-03-30T12:25:23.362Z,42.11
2023-03-30T12:26:29.386Z,41.39
2023-03-30T12:27:29.201Z,40.72
2023-03-30T12:28:35.795Z,40.32
2023-03-30T12:30:59.766Z,39.29
2023-03-30T12:31:56.777Z,38.52
2023-03-30T12:32:59.072Z,39.12
2023-03-30T12:34:06.900Z,38.99
2023-03-30T12:35:41.850Z,40.40
2023-03-30T12:36:46.628Z,37.96
2023-03-30T12:37:48.248Z,38.53
2023-03-30T12:38:46.695Z,36.87
2023-03-30T12:39:49.500Z,37.09
2023-03-30T12:40:53.179Z,37.20
2023-03-30T12:41:50.869Z,38.45
2023-03-30T12:43:28.543Z,37.61
2023-03-30T12:44:50.917Z,37.84
2023-03-30T12:46:26.316Z,36.48
2023-03-30T12:47:44.638Z,36.74
2023-03-30T12:49:08.279Z,37.82
2023-03-30T12:50:17.291Z,36.45
2023-03-30T12:51:34.371Z,37.11
2023-03-30T12:52:40.423Z,37.90
2023-03-30T12:53:59.072Z,37.80
2023-03-30T12:55:23.715Z,37.62
2023-03-30T12:56:32.202Z,37.70
2023-03-30T12:57:35.063Z,37.06
2023-03-30T12:58:43.730Z,37.04
2023-03-30T12:59:56.813Z,36.22
2023-03-30T13:00:56.282Z,37.21
2023-03-30T13:02:11.307Z,36.91
2023-03-30T13:03:18.414Z,36.45
2023-03-30T13:04:37.802Z,37.08
2023-03-30T13:05:39.767Z,38.52
2023-03-30T13:06:49.058Z,38.33
2023-03-30T13:07:46.206Z,37.87
2023-03-30T13:08:42.965Z,37.14
2023-03-30T13:09:56.558Z,37.69
2023-03-30T13:11:16.663Z,37.39
2023-03-30T13:12:35.065Z,37.59
2023-03-30T13:14:14.240Z,38.38
2023-03-30T13:15:16.648Z,36.04
2023-03-30T13:16:14.362Z,37.29
2023-03-30T13:17:17.211Z,36.98
2023-03-30T13:18:13.824Z,37.93
2023-03-30T13:19:37.260Z,35.88
2023-03-30T13:20:47.323Z,36.16
2023-03-30T13:21:51.825Z,35.96
2023-03-30T13:23:09.948Z,37.75
2023-03-30T13:24:36.404Z,34.60
2023-03-30T13:25:45.635Z,35.03
2023-03-30T13:26:44.628Z,35.72
2023-03-30T13:27:42.318Z,36.32